Time;durP1;ratioP1;P1;durP2;ratioP2;P2;SDS_P1;SDS_P2;PMS_P1;PMS_P2;Temp;Humidity;BMP_temperature;BMP_pressure;BME280_temperature;BME280_humidity;BME280_pressure;Samples;Min_cycle;Max_cycle;Signal;HPM_P1;HPM_P2
2022/03/15 00:00:34;;;;;;;66.43;27.05;;;;;;;;;;5122550;28;20043;-94
2022/03/15 00:03:02;;;;;;;65.60;26.02;;;;;;;;;;5123121;28;20050;-94
2022/03/15 00:05:30;;;;;;;71.07;27.85;;;;;;;;;;5121785;28;20097;-94
2022/03/15 00:07:57;;;;;;;68.47;26.35;;;;;;;;;;5121632;28;20494;-94
2022/03/15 00:10:25;;;;;;;66.63;27.20;;;;;;;;;;5122473;28;20048;-93
2022/03/15 00:12:54;;;;;;;65.65;26.95;;;;;;;;;;5121863;28;20109;-93
2022/03/15 00:15:21;;;;;;;64.10;25.77;;;;;;;;;;5121998;28;20058;-94
2022/03/15 00:17:49;;;;;;;72.40;28.27;;;;;;;;;;5123154;28;20134;-93
2022/03/15 00:20:19;;;;;;;66.60;27.77;;;;;;;;;;5121686;28;20051;-90
2022/03/15 00:22:47;;;;;;;64.90;27.15;;;;;;;;;;5121537;28;20050;-93
2022/03/15 00:25:16;;;;;;;61.33;26.38;;;;;;;;;;5120627;28;20052;-93
2022/03/15 00:27:47;;;;;;;71.45;27.35;;;;;;;;;;5131887;28;20067;-94
2022/03/15 00:30:15;;;;;;;68.95;28.30;;;;;;;;;;5132332;27;20052;-94
2022/03/15 00:32:42;;;;;;;68.43;26.45;;;;;;;;;;5122561;28;20055;-94
2022/03/15 00:35:17;;;;;;;67.90;27.73;;;;;;;;;;5122150;28;20047;-94
2022/03/15 00:37:49;;;;;;;75.93;28.87;;;;;;;;;;5123306;28;20051;-93
2022/03/15 00:40:17;;;;;;;71.57;26.85;;;;;;;;;;5120955;28;20304;-94
2022/03/15 00:42:47;;;;;;;69.57;26.98;;;;;;;;;;5120600;28;20040;-94
2022/03/15 00:45:15;;;;;;;63.58;25.50;;;;;;;;;;5123326;28;20040;-93
2022/03/15 00:47:42;;;;;;;66.55;25.88;;;;;;;;;;5123604;28;20064;-93
2022/03/15 00:50:11;;;;;;;65.80;27.70;;;;;;;;;;5133556;27;20452;-92
2022/03/15 00:52:38;;;;;;;66.38;26.17;;;;;;;;;;5136683;28;20052;-93
2022/03/15 00:55:06;;;;;;;64.88;24.67;;;;;;;;;;5136792;28;20105;-92
2022/03/15 00:57:34;;;;;;;61.10;24.90;;;;;;;;;;5135565;27;20112;-94
2022/03/15 01:00:01;;;;;;;65.78;25.98;;;;;;;;;;5124291;28;20052;-95
2022/03/15 01:02:28;;;;;;;57.38;24.30;;;;;;;;;;5123704;28;20048;-93
2022/03/15 01:04:56;;;;;;;66.18;25.77;;;;;;;;;;5120603;28;20059;-93
2022/03/15 01:07:23;;;;;;;65.38;23.92;;;;;;;;;;5120136;28;20043;-93
2022/03/15 01:09:51;;;;;;;65.28;24.83;;;;;;;;;;5121522;28;20510;-92
2022/03/15 01:12:18;;;;;;;53.53;23.17;;;;;;;;;;5120223;28;20073;-92
2022/03/15 01:14:46;;;;;;;59.80;23.95;;;;;;;;;;5120001;28;20465;-93
2022/03/15 01:17:13;;;;;;;55.95;23.23;;;;;;;;;;5123752;28;20460;-93
2022/03/15 01:19:41;;;;;;;58.13;22.20;;;;;;;;;;5125208;28;20055;-92
2022/03/15 01:22:08;;;;;;;53.97;21.88;;;;;;;;;;5125717;28;20055;-92
2022/03/15 01:24:35;;;;;;;56.47;21.52;;;;;;;;;;5126152;28;20047;-93
2022/03/15 01:27:03;;;;;;;54.63;22.15;;;;;;;;;;5125180;28;20043;-93
2022/03/15 01:29:30;;;;;;;52.67;20.77;;;;;;;;;;5125947;28;20056;-94
2022/03/15 01:31:59;;;;;;;53.53;20.95;;;;;;;;;;5126498;28;20077;-92
2022/03/15 01:34:28;;;;;;;50.47;20.92;;;;;;;;;;5110697;28;20051;-92
2022/03/15 01:36:55;;;;;;;55.38;21.50;;;;;;;;;;5104842;28;20417;-92
2022/03/15 01:39:22;;;;;;;48.78;20.83;;;;;;;;;;5106712;28;20059;-92
2022/03/15 01:41:52;;;;;;;58.28;22.25;;;;;;;;;;5104460;28;20059;-93
2022/03/15 01:44:20;;;;;;;54.60;22.65;;;;;;;;;;5103667;28;20052;-93
2022/03/15 01:46:48;;;;;;;56.72;21.40;;;;;;;;;;5103388;28;20125;-93
2022/03/15 01:49:16;;;;;;;50.35;21.13;;;;;;;;;;5104506;28;20051;-93
2022/03/15 01:51:46;;;;;;;59.55;22.35;;;;;;;;;;5103837;28;20056;-92
2022/03/15 01:54:14;;;;;;;58.15;21.67;;;;;;;;;;5103374;28;20044;-93
2022/03/15 01:56:42;;;;;;;50.00;22.08;;;;;;;;;;5106754;28;20056;-93
2022/03/15 01:59:10;;;;;;;55.38;22.02;;;;;;;;;;5104543;28;20048;-93
2022/03/15 02:01:39;;;;;;;47.85;19.95;;;;;;;;;;5104217;28;20044;-92
2022/03/15 02:04:11;;;;;;;56.10;20.63;;;;;;;;;;5102900;28;20472;-92
2022/03/15 02:06:39;;;;;;;51.20;21.35;;;;;;;;;;5103786;28;20051;-91
2022/03/15 02:09:13;;;;;;;49.85;20.55;;;;;;;;;;5103398;28;20092;-93
2022/03/15 02:11:45;;;;;;;50.70;20.38;;;;;;;;;;5103333;28;20063;-93
2022/03/15 02:14:12;;;;;;;52.90;19.92;;;;;;;;;;5104142;28;20056;-93
2022/03/15 02:16:39;;;;;;;46.88;19.48;;;;;;;;;;5105049;28;20490;-92
2022/03/15 02:19:07;;;;;;;44.58;18.63;;;;;;;;;;5104090;28;20489;-93
2022/03/15 02:25:01;;;;;;;49.05;17.48;;;;;;;;;;5006490;28;20136;-92
2022/03/15 02:27:28;;;;;;;43.58;18.30;;;;;;;;;;5025360;28;20053;-92
2022/03/15 02:29:56;;;;;;;45.05;17.20;;;;;;;;;;5071127;28;20071;-92
2022/03/15 02:32:23;;;;;;;47.58;18.42;;;;;;;;;;5101746;28;20055;-93
2022/03/15 02:34:51;;;;;;;37.45;16.33;;;;;;;;;;5101497;28;20044;-92
2022/03/15 02:37:18;;;;;;;44.03;18.63;;;;;;;;;;5102491;28;20060;-93
2022/03/15 02:39:45;;;;;;;40.08;16.80;;;;;;;;;;5101722;28;20055;-93
2022/03/15 02:42:13;;;;;;;44.95;17.08;;;;;;;;;;5101971;28;20438;-92
2022/03/15 02:44:40;;;;;;;43.25;17.80;;;;;;;;;;5102380;28;20541;-92
2022/03/15 02:47:07;;;;;;;47.50;17.50;;;;;;;;;;5101697;28;20152;-92
2022/03/15 02:49:35;;;;;;;43.80;18.77;;;;;;;;;;5101649;28;20078;-92
2022/03/15 02:52:03;;;;;;;44.40;17.38;;;;;;;;;;5102267;28;20073;-92
2022/03/15 02:54:30;;;;;;;38.50;16.30;;;;;;;;;;5101611;28;20500;-92
2022/03/15 02:56:58;;;;;;;45.95;17.17;;;;;;;;;;5101665;28;20067;-92
2022/03/15 02:59:27;;;;;;;41.65;16.70;;;;;;;;;;5101620;28;20048;-92
2022/03/15 03:01:56;;;;;;;41.80;17.58;;;;;;;;;;5101576;28;20048;-91
2022/03/15 03:04:23;;;;;;;50.33;18.52;;;;;;;;;;5101185;28;20495;-92
2022/03/15 03:06:52;;;;;;;53.38;18.58;;;;;;;;;;5101722;28;20361;-92
2022/03/15 03:09:20;;;;;;;40.85;17.65;;;;;;;;;;5100972;28;20118;-91
2022/03/15 03:11:47;;;;;;;45.40;17.05;;;;;;;;;;5100658;28;20052;-93
2022/03/15 03:14:16;;;;;;;55.47;19.20;;;;;;;;;;5101096;28;20051;-93
2022/03/15 03:16:43;;;;;;;48.47;19.65;;;;;;;;;;5100674;28;20060;-92
2022/03/15 03:19:11;;;;;;;58.53;19.13;;;;;;;;;;5100582;28;20060;-92
2022/03/15 03:21:39;;;;;;;46.92;18.05;;;;;;;;;;5100641;28;20118;-93
2022/03/15 03:24:07;;;;;;;53.00;16.83;;;;;;;;;;5100954;28;20055;-92
2022/03/15 03:26:37;;;;;;;51.47;18.33;;;;;;;;;;5100877;28;20048;-93
2022/03/15 03:29:09;;;;;;;46.72;16.13;;;;;;;;;;5101400;28;20054;-92
2022/03/15 03:31:37;;;;;;;44.58;18.48;;;;;;;;;;5100851;28;20138;-93
2022/03/15 03:34:07;;;;;;;43.88;16.35;;;;;;;;;;5101333;28;20075;-92
2022/03/15 03:36:37;;;;;;;55.63;20.70;;;;;;;;;;5101060;28;20048;-94
2022/03/15 03:39:23;;;;;;;53.38;17.95;;;;;;;;;;5101145;28;20066;-93
2022/03/15 03:41:52;;;;;;;50.65;17.42;;;;;;;;;;5100673;28;20054;-93
2022/03/15 03:44:19;;;;;;;53.90;17.02;;;;;;;;;;5100483;28;20044;-93
2022/03/15 03:46:47;;;;;;;42.40;15.52;;;;;;;;;;5100401;28;20055;-93
2022/03/15 03:49:14;;;;;;;48.05;16.55;;;;;;;;;;5100832;28;20052;-93
2022/03/15 03:51:43;;;;;;;46.13;17.60;;;;;;;;;;5099960;28;20052;-93
2022/03/15 03:54:11;;;;;;;47.13;15.40;;;;;;;;;;5110630;28;20058;-91
2022/03/15 03:56:38;;;;;;;42.50;17.02;;;;;;;;;;5123040;28;20105;-93
2022/03/15 03:59:05;;;;;;;52.08;16.60;;;;;;;;;;5122852;28;20058;-92
2022/03/15 04:01:34;;;;;;;42.20;17.00;;;;;;;;;;5110370;28;20074;-92
2022/03/15 04:04:06;;;;;;;45.63;15.30;;;;;;;;;;5104812;28;20045;-92
2022/03/15 04:06:34;;;;;;;47.10;16.25;;;;;;;;;;5101951;28;20074;-92
2022/03/15 04:09:33;;;;;;;47.47;16.77;;;;;;;;;;5101821;28;20048;-92
2022/03/15 04:12:14;;;;;;;53.55;17.50;;;;;;;;;;5105672;28;20055;-94
2022/03/15 04:14:41;;;;;;;50.92;16.10;;;;;;;;;;5110708;28;20055;-92
2022/03/15 04:17:09;;;;;;;48.55;17.20;;;;;;;;;;5129902;28;20073;-92
2022/03/15 04:19:38;;;;;;;59.13;17.55;;;;;;;;;;5112932;28;20073;-92
2022/03/15 04:22:06;;;;;;;54.67;17.70;;;;;;;;;;5113323;28;20496;-92
2022/03/15 04:24:33;;;;;;;51.45;17.50;;;;;;;;;;5107750;28;20048;-92
2022/03/15 04:27:01;;;;;;;47.38;18.20;;;;;;;;;;5103723;28;20039;-92
2022/03/15 04:29:28;;;;;;;48.13;16.80;;;;;;;;;;5103657;28;20043;-91
2022/03/15 04:31:56;;;;;;;56.03;16.85;;;;;;;;;;5121417;28;20047;-92
2022/03/15 04:34:25;;;;;;;46.95;16.95;;;;;;;;;;5104536;28;20051;-93
2022/03/15 04:36:52;;;;;;;53.53;18.35;;;;;;;;;;5104445;28;20055;-92
2022/03/15 04:39:20;;;;;;;53.88;18.30;;;;;;;;;;5103799;28;20055;-92
2022/03/15 04:41:48;;;;;;;49.15;16.88;;;;;;;;;;5103128;28;20049;-92
2022/03/15 04:44:15;;;;;;;52.72;18.55;;;;;;;;;;5106500;28;20092;-92
2022/03/15 04:46:43;;;;;;;51.45;16.83;;;;;;;;;;5108904;28;20052;-92
2022/03/15 04:49:15;;;;;;;44.70;16.92;;;;;;;;;;5106664;28;20043;-93
2022/03/15 04:51:43;;;;;;;52.70;19.00;;;;;;;;;;5122058;28;20112;-92
2022/03/15 04:54:10;;;;;;;42.67;16.63;;;;;;;;;;5120433;28;20052;-91
2022/03/15 04:56:38;;;;;;;46.70;17.38;;;;;;;;;;5106648;28;20107;-92
2022/03/15 04:59:05;;;;;;;54.22;16.60;;;;;;;;;;5118436;28;20746;-92
2022/03/15 05:01:34;;;;;;;48.08;17.95;;;;;;;;;;5101661;28;20052;-93
2022/03/15 05:04:01;;;;;;;49.30;17.55;;;;;;;;;;5104017;28;20044;-91
2022/03/15 05:06:29;;;;;;;46.97;17.45;;;;;;;;;;5102422;28;20047;-92
2022/03/15 05:08:56;;;;;;;45.72;16.92;;;;;;;;;;5102319;28;20044;-93
2022/03/15 05:11:27;;;;;;;51.70;16.58;;;;;;;;;;5103980;28;20484;-92
2022/03/15 05:13:54;;;;;;;52.60;17.33;;;;;;;;;;5121800;28;20043;-90
2022/03/15 05:16:22;;;;;;;55.17;17.52;;;;;;;;;;5104010;28;20047;-91
2022/03/15 05:18:52;;;;;;;53.35;17.48;;;;;;;;;;5122140;28;20063;-91
2022/03/15 05:21:20;;;;;;;42.33;16.63;;;;;;;;;;5121673;28;20070;-90
2022/03/15 05:23:48;;;;;;;51.33;18.88;;;;;;;;;;5120735;28;20052;-91
2022/03/15 05:26:17;;;;;;;60.25;17.70;;;;;;;;;;5120185;28;20100;-90
2022/03/15 05:28:45;;;;;;;58.10;18.50;;;;;;;;;;5103078;28;20048;-90
2022/03/15 05:31:13;;;;;;;51.15;18.27;;;;;;;;;;5103126;28;20047;-90
2022/03/15 05:33:40;;;;;;;49.92;18.10;;;;;;;;;;5110946;28;20055;-91
2022/03/15 05:36:08;;;;;;;53.50;19.40;;;;;;;;;;5108368;28;20450;-91
2022/03/15 05:38:35;;;;;;;57.13;19.35;;;;;;;;;;5104986;28;20048;-90
2022/03/15 05:41:07;;;;;;;58.10;19.35;;;;;;;;;;5103043;28;20048;-90
2022/03/15 05:43:52;;;;;;;67.05;21.40;;;;;;;;;;5103904;28;20043;-89
2022/03/15 05:46:20;;;;;;;59.55;19.10;;;;;;;;;;5101114;28;20059;-91
2022/03/15 05:48:48;;;;;;;48.55;17.20;;;;;;;;;;5100908;28;20044;-91
2022/03/15 05:51:15;;;;;;;59.42;20.05;;;;;;;;;;5120091;28;20077;-91
2022/03/15 05:53:42;;;;;;;54.60;18.10;;;;;;;;;;5102102;28;20271;-91
2022/03/15 05:56:11;;;;;;;48.65;19.10;;;;;;;;;;5102222;28;20047;-91
2022/03/15 05:58:38;;;;;;;53.50;18.95;;;;;;;;;;5101577;28;20101;-91
2022/03/15 06:01:05;;;;;;;50.25;18.77;;;;;;;;;;5101924;28;20047;-91
2022/03/15 06:03:33;;;;;;;53.15;17.77;;;;;;;;;;5111294;28;20073;-92
2022/03/15 06:06:02;;;;;;;57.33;19.65;;;;;;;;;;5122845;28;20110;-90
2022/03/15 06:08:30;;;;;;;51.50;19.40;;;;;;;;;;5119076;28;20100;-90
2022/03/15 06:10:58;;;;;;;52.42;18.60;;;;;;;;;;5118361;28;20054;-89
2022/03/15 06:13:25;;;;;;;57.92;19.42;;;;;;;;;;5124608;28;20031;-90
2022/03/15 06:15:53;;;;;;;67.18;19.88;;;;;;;;;;5124507;28;20047;-91
2022/03/15 06:18:20;;;;;;;58.42;20.08;;;;;;;;;;5134381;28;20135;-91
2022/03/15 06:20:48;;;;;;;54.75;18.95;;;;;;;;;;5112288;28;20050;-92
2022/03/15 06:23:18;;;;;;;51.38;18.52;;;;;;;;;;5107079;28;20054;-91
2022/03/15 06:25:46;;;;;;;53.78;18.15;;;;;;;;;;5106278;28;20067;-90
2022/03/15 06:28:14;;;;;;;55.03;19.77;;;;;;;;;;5108751;28;20101;-91
2022/03/15 06:30:48;;;;;;;56.67;19.23;;;;;;;;;;5097001;28;20047;-90
2022/03/15 06:33:15;;;;;;;51.88;18.33;;;;;;;;;;5104250;28;20052;-89
2022/03/15 06:35:42;;;;;;;41.17;17.23;;;;;;;;;;5104142;28;20378;-90
2022/03/15 06:38:11;;;;;;;51.15;18.42;;;;;;;;;;5103028;28;20662;-89
2022/03/15 06:40:41;;;;;;;64.05;20.50;;;;;;;;;;5102158;28;20040;-90
2022/03/15 06:43:11;;;;;;;56.45;19.80;;;;;;;;;;5106365;28;20052;-92
2022/03/15 06:45:41;;;;;;;50.33;19.88;;;;;;;;;;5113175;28;20054;-91
2022/03/15 06:48:09;;;;;;;51.22;18.27;;;;;;;;;;5106423;28;20052;-91
2022/03/15 06:50:36;;;;;;;51.40;17.20;;;;;;;;;;5106230;28;20052;-90
2022/03/15 06:53:04;;;;;;;49.40;17.25;;;;;;;;;;5104389;28;20050;-89
2022/03/15 06:55:32;;;;;;;47.75;18.15;;;;;;;;;;5104142;28;20051;-89
2022/03/15 06:58:00;;;;;;;48.33;17.80;;;;;;;;;;5120283;28;20039;-89
2022/03/15 07:00:27;;;;;;;46.30;16.77;;;;;;;;;;5120641;28;20130;-90
2022/03/15 07:02:54;;;;;;;46.85;18.17;;;;;;;;;;5122252;28;20035;-91
2022/03/15 07:05:25;;;;;;;58.70;17.00;;;;;;;;;;5125577;28;20051;-91
2022/03/15 07:07:52;;;;;;;34.85;15.43;;;;;;;;;;5106788;28;20039;-91
2022/03/15 07:10:20;;;;;;;46.03;16.85;;;;;;;;;;5102078;28;20051;-89
2022/03/15 07:12:48;;;;;;;50.97;17.27;;;;;;;;;;5124715;27;20047;-89
2022/03/15 07:15:17;;;;;;;46.90;18.33;;;;;;;;;;5119131;28;20055;-90
2022/03/15 07:17:49;;;;;;;45.22;17.35;;;;;;;;;;5104322;28;20127;-89
2022/03/15 07:20:16;;;;;;;45.70;16.83;;;;;;;;;;5117560;28;20100;-90
2022/03/15 07:22:44;;;;;;;45.88;17.15;;;;;;;;;;5124114;27;20043;-91
2022/03/15 07:25:11;;;;;;;57.78;17.95;;;;;;;;;;5140459;27;20054;-90
2022/03/15 07:27:38;;;;;;;43.60;16.33;;;;;;;;;;5113812;28;20044;-90
2022/03/15 07:30:06;;;;;;;43.95;17.42;;;;;;;;;;5121491;27;20488;-89
2022/03/15 07:32:34;;;;;;;43.47;16.80;;;;;;;;;;5124265;27;20059;-91
2022/03/15 07:35:01;;;;;;;49.22;17.90;;;;;;;;;;5122877;27;20421;-91
2022/03/15 07:37:28;;;;;;;50.60;16.15;;;;;;;;;;5123824;27;20055;-91
2022/03/15 07:39:56;;;;;;;47.83;16.02;;;;;;;;;;5107330;28;20128;-92
2022/03/15 07:42:27;;;;;;;46.53;16.08;;;;;;;;;;5101841;28;20495;-89
2022/03/15 07:44:54;;;;;;;41.33;14.93;;;;;;;;;;5107119;28;20044;-92
2022/03/15 07:47:22;;;;;;;55.15;17.27;;;;;;;;;;5098969;28;20093;-91
2022/03/15 07:49:50;;;;;;;50.65;17.75;;;;;;;;;;5120263;28;20446;-91
2022/03/15 07:52:18;;;;;;;51.28;16.92;;;;;;;;;;5100105;28;20104;-90
2022/03/15 07:54:46;;;;;;;46.75;14.85;;;;;;;;;;5112820;28;20049;-90
2022/03/15 07:57:14;;;;;;;41.53;17.08;;;;;;;;;;5119550;28;20059;-89
2022/03/15 07:59:42;;;;;;;47.33;16.15;;;;;;;;;;5091010;28;20377;-91
2022/03/15 08:02:15;;;;;;;56.95;15.32;;;;;;;;;;5085564;28;20060;-90
2022/03/15 08:04:47;;;;;;;44.60;16.58;;;;;;;;;;5104218;28;20040;-91
2022/03/15 08:07:16;;;;;;;49.45;16.48;;;;;;;;;;5116956;22;20075;-88
2022/03/15 08:09:43;;;;;;;52.25;16.00;;;;;;;;;;5062891;28;20040;-88
2022/03/15 08:12:10;;;;;;;47.95;15.65;;;;;;;;;;5075563;28;20072;-87
2022/03/15 08:14:38;;;;;;;48.22;16.35;;;;;;;;;;5077592;28;20052;-87
2022/03/15 08:17:05;;;;;;;46.42;17.23;;;;;;;;;;5068717;28;20083;-83
2022/03/15 08:19:32;;;;;;;49.08;16.95;;;;;;;;;;5064721;28;20056;-89
2022/03/15 08:22:02;;;;;;;51.38;16.52;;;;;;;;;;5057923;28;20475;-89
2022/03/15 08:24:29;;;;;;;45.75;16.73;;;;;;;;;;5073736;28;20044;-84
2022/03/15 08:26:56;;;;;;;46.22;18.08;;;;;;;;;;5076344;28;20045;-87
2022/03/15 08:29:23;;;;;;;56.03;19.25;;;;;;;;;;5075508;28;20150;-82
2022/03/15 08:31:51;;;;;;;52.33;18.52;;;;;;;;;;5069557;28;20057;-84
2022/03/15 08:34:19;;;;;;;54.05;17.75;;;;;;;;;;5073007;28;20114;-86
2022/03/15 08:36:47;;;;;;;44.95;16.98;;;;;;;;;;5076472;28;20078;-82
2022/03/15 08:39:15;;;;;;;45.20;18.25;;;;;;;;;;5075376;28;20302;-87
2022/03/15 08:41:45;;;;;;;44.00;17.20;;;;;;;;;;5062744;28;20087;-88
2022/03/15 08:44:12;;;;;;;38.97;17.13;;;;;;;;;;5052607;28;20498;-76
2022/03/15 08:46:40;;;;;;;38.78;16.48;;;;;;;;;;5055452;28;20082;-78
2022/03/15 08:49:08;;;;;;;39.90;17.00;;;;;;;;;;5060354;28;20094;-84
2022/03/15 08:51:35;;;;;;;40.55;16.48;;;;;;;;;;5071868;28;20382;-77
2022/03/15 08:54:03;;;;;;;35.40;15.98;;;;;;;;;;5064243;28;20513;-77
2022/03/15 08:56:30;;;;;;;35.38;16.67;;;;;;;;;;5064352;28;20056;-77
2022/03/15 08:58:58;;;;;;;40.13;17.40;;;;;;;;;;5071697;28;20101;-87
2022/03/15 09:01:25;;;;;;;42.33;16.55;;;;;;;;;;5075698;28;20907;-86
2022/03/15 09:04:01;;;;;;;45.60;17.48;;;;;;;;;;5066094;28;20091;-87
2022/03/15 09:06:29;;;;;;;43.97;16.80;;;;;;;;;;5091901;28;20127;-85
2022/03/15 09:08:57;;;;;;;39.30;16.48;;;;;;;;;;5071199;28;20101;-88
2022/03/15 09:11:24;;;;;;;39.40;16.15;;;;;;;;;;5075579;28;20760;-88
2022/03/15 09:13:52;;;;;;;33.55;15.07;;;;;;;;;;5074896;28;20072;-85
2022/03/15 09:16:20;;;;;;;41.90;15.93;;;;;;;;;;5073651;28;20044;-84
2022/03/15 09:18:48;;;;;;;35.83;16.17;;;;;;;;;;5069249;28;20076;-85
2022/03/15 09:21:15;;;;;;;36.72;16.67;;;;;;;;;;5058754;28;20446;-84
2022/03/15 09:23:42;;;;;;;34.08;15.98;;;;;;;;;;5072895;28;20051;-85
2022/03/15 09:26:10;;;;;;;31.95;15.43;;;;;;;;;;5072330;28;20083;-86
2022/03/15 09:28:37;;;;;;;31.52;15.88;;;;;;;;;;5069726;28;20044;-80
2022/03/15 09:31:05;;;;;;;27.38;13.48;;;;;;;;;;5064747;28;20087;-79
2022/03/15 09:33:33;;;;;;;26.50;14.60;;;;;;;;;;5065939;28;20049;-80
2022/03/15 09:36:00;;;;;;;22.85;13.52;;;;;;;;;;5067739;28;20407;-80
2022/03/15 09:38:27;;;;;;;26.65;14.57;;;;;;;;;;5070363;28;20123;-80
2022/03/15 09:40:55;;;;;;;25.30;13.70;;;;;;;;;;5066151;28;20135;-83
2022/03/15 09:43:24;;;;;;;27.42;14.73;;;;;;;;;;5064039;28;20494;-79
2022/03/15 09:45:52;;;;;;;29.42;14.38;;;;;;;;;;5070426;28;20088;-81
2022/03/15 09:48:41;;;;;;;22.48;14.38;;;;;;;;;;5055966;28;20076;-80
2022/03/15 09:51:11;;;;;;;31.20;13.73;;;;;;;;;;5058599;28;20068;-80
2022/03/15 09:53:39;;;;;;;25.35;13.68;;;;;;;;;;5071092;28;20083;-82
2022/03/15 09:56:06;;;;;;;23.98;13.40;;;;;;;;;;5070307;28;20061;-80
2022/03/15 09:58:34;;;;;;;22.52;13.00;;;;;;;;;;5070301;28;20057;-80
2022/03/15 10:01:02;;;;;;;24.88;13.88;;;;;;;;;;5073284;28;20113;-80
2022/03/15 10:03:30;;;;;;;22.38;13.77;;;;;;;;;;5065734;28;20044;-80
2022/03/15 10:05:58;;;;;;;29.08;13.27;;;;;;;;;;5052881;28;20541;-80
2022/03/15 10:08:25;;;;;;;19.90;11.75;;;;;;;;;;5074628;28;20076;-82
2022/03/15 10:10:53;;;;;;;42.75;14.40;;;;;;;;;;5077530;28;20064;-82
2022/03/15 10:13:21;;;;;;;20.73;12.80;;;;;;;;;;5076095;28;20759;-82
2022/03/15 10:15:56;;;;;;;24.02;13.75;;;;;;;;;;5076543;28;20048;-81
2022/03/15 10:18:24;;;;;;;20.98;13.25;;;;;;;;;;5057621;28;20049;-85
2022/03/15 10:20:51;;;;;;;20.40;12.40;;;;;;;;;;5060957;28;20084;-80
2022/03/15 10:23:22;;;;;;;19.73;11.90;;;;;;;;;;5070364;28;20053;-80
2022/03/15 10:25:50;;;;;;;24.50;12.90;;;;;;;;;;5062855;28;20076;-81
2022/03/15 10:28:18;;;;;;;31.25;13.07;;;;;;;;;;5062502;28;20040;-79
2022/03/15 10:30:46;;;;;;;21.83;12.95;;;;;;;;;;5062253;28;20102;-77
2022/03/15 10:33:15;;;;;;;27.63;13.18;;;;;;;;;;5066777;28;20864;-77
2022/03/15 10:35:44;;;;;;;21.40;12.73;;;;;;;;;;5068553;28;20136;-78
2022/03/15 10:38:12;;;;;;;20.13;12.73;;;;;;;;;;5060343;28;20106;-78
2022/03/15 10:40:40;;;;;;;18.20;12.52;;;;;;;;;;5084864;28;20079;-80
2022/03/15 10:43:10;;;;;;;21.05;12.25;;;;;;;;;;5062761;28;20132;-81
2022/03/15 10:45:41;;;;;;;27.08;13.80;;;;;;;;;;5065142;28;20101;-78
2022/03/15 10:48:18;;;;;;;21.98;11.60;;;;;;;;;;5053628;28;20144;-77
2022/03/15 10:50:49;;;;;;;18.55;12.57;;;;;;;;;;5048871;28;20057;-78
2022/03/15 10:53:17;;;;;;;26.92;13.25;;;;;;;;;;5067729;28;20667;-78
2022/03/15 10:55:44;;;;;;;27.25;13.40;;;;;;;;;;5070653;28;20084;-79
2022/03/15 10:58:13;;;;;;;27.38;12.80;;;;;;;;;;5063557;28;20056;-79
2022/03/15 11:00:42;;;;;;;26.88;13.07;;;;;;;;;;5072795;28;20064;-79
2022/03/15 11:03:19;;;;;;;23.08;12.88;;;;;;;;;;5058961;28;20059;-79
2022/03/15 11:05:49;;;;;;;24.42;12.00;;;;;;;;;;5059751;28;20045;-76
2022/03/15 11:08:17;;;;;;;23.17;13.25;;;;;;;;;;5065679;28;20075;-77
2022/03/15 11:10:50;;;;;;;21.55;12.13;;;;;;;;;;5069101;28;20080;-77
2022/03/15 11:13:17;;;;;;;26.73;12.88;;;;;;;;;;5064960;28;20056;-75
2022/03/15 11:15:46;;;;;;;26.80;12.23;;;;;;;;;;5058880;28;20057;-75
2022/03/15 11:18:15;;;;;;;23.55;11.70;;;;;;;;;;5063776;28;20052;-77
2022/03/15 11:20:43;;;;;;;22.02;12.38;;;;;;;;;;5049463;28;20048;-78
2022/03/15 11:23:18;;;;;;;24.20;11.63;;;;;;;;;;5067889;28;20052;-80
2022/03/15 11:25:48;;;;;;;31.15;12.77;;;;;;;;;;5084679;28;20131;-79
2022/03/15 11:28:17;;;;;;;20.60;11.40;;;;;;;;;;5070832;28;20101;-79
2022/03/15 11:30:44;;;;;;;24.17;12.52;;;;;;;;;;5070409;28;20053;-79
2022/03/15 11:33:11;;;;;;;23.58;11.68;;;;;;;;;;5068848;28;20452;-79
2022/03/15 11:35:40;;;;;;;26.05;12.00;;;;;;;;;;5070147;28;20087;-79
2022/03/15 11:38:09;;;;;;;23.27;11.95;;;;;;;;;;5070705;28;20053;-79
2022/03/15 11:40:37;;;;;;;27.15;11.88;;;;;;;;;;5057877;28;20053;-79
2022/03/15 11:43:25;;;;;;;26.35;11.15;;;;;;;;;;5067731;28;20755;-79
2022/03/15 11:46:01;;;;;;;32.90;13.10;;;;;;;;;;5039552;28;20053;-77
2022/03/15 11:48:46;;;;;;;21.70;10.52;;;;;;;;;;5067756;28;20044;-78
2022/03/15 11:51:32;;;;;;;32.13;11.00;;;;;;;;;;5071011;28;20155;-79
2022/03/15 11:54:08;;;;;;;21.73;11.10;;;;;;;;;;5071147;28;20080;-78
2022/03/15 11:56:42;;;;;;;25.98;11.48;;;;;;;;;;5068613;28;20052;-78
2022/03/15 11:59:09;;;;;;;37.97;11.75;;;;;;;;;;5064934;28;20056;-77
2022/03/15 12:01:46;;;;;;;21.73;11.30;;;;;;;;;;5070405;28;20135;-79
2022/03/15 12:04:13;;;;;;;43.28;12.77;;;;;;;;;;5051836;28;20087;-78
2022/03/15 12:06:50;;;;;;;23.27;11.05;;;;;;;;;;5070277;28;20591;-78
2022/03/15 12:09:21;;;;;;;26.13;11.75;;;;;;;;;;5069852;28;20158;-79
2022/03/15 12:11:49;;;;;;;23.92;10.90;;;;;;;;;;5070082;28;20045;-79
2022/03/15 12:14:17;;;;;;;24.95;9.98;;;;;;;;;;5068871;28;20128;-78
2022/03/15 12:16:51;;;;;;;28.05;10.65;;;;;;;;;;5070638;28;20080;-80
2022/03/15 12:19:35;;;;;;;24.95;10.05;;;;;;;;;;5058115;28;20060;-79
2022/03/15 12:22:08;;;;;;;21.30;9.07;;;;;;;;;;5051695;28;20057;-79
2022/03/15 12:24:54;;;;;;;21.08;9.48;;;;;;;;;;5068535;28;20136;-79
2022/03/15 12:27:30;;;;;;;23.13;9.90;;;;;;;;;;5068607;28;20048;-79
2022/03/15 12:29:59;;;;;;;21.30;10.98;;;;;;;;;;5068812;28;20045;-79
2022/03/15 12:32:31;;;;;;;23.60;10.25;;;;;;;;;;5069089;28;20489;-78
2022/03/15 12:34:59;;;;;;;25.73;10.15;;;;;;;;;;5062681;28;20527;-78
2022/03/15 12:37:34;;;;;;;23.17;10.18;;;;;;;;;;5070325;28;20079;-79
2022/03/15 12:40:03;;;;;;;23.75;10.50;;;;;;;;;;5073226;28;20048;-79
2022/03/15 12:42:31;;;;;;;26.45;10.65;;;;;;;;;;5082423;28;20056;-78
2022/03/15 12:45:03;;;;;;;23.40;9.98;;;;;;;;;;5067352;28;20136;-78
2022/03/15 12:47:35;;;;;;;33.70;11.40;;;;;;;;;;5066007;28;20045;-79
2022/03/15 12:50:07;;;;;;;27.55;10.57;;;;;;;;;;5068786;28;20049;-79
2022/03/15 12:52:42;;;;;;;26.48;10.23;;;;;;;;;;5069739;28;20052;-78
2022/03/15 12:55:17;;;;;;;29.50;10.18;;;;;;;;;;5066763;28;20056;-78
2022/03/15 12:57:45;;;;;;;27.38;10.63;;;;;;;;;;5072336;28;20080;-79
2022/03/15 13:00:14;;;;;;;25.08;11.18;;;;;;;;;;5067805;28;20092;-75
2022/03/15 13:02:42;;;;;;;30.05;9.93;;;;;;;;;;5060766;28;20060;-75
2022/03/15 13:05:11;;;;;;;27.33;10.80;;;;;;;;;;5064587;28;20582;-76
2022/03/15 13:07:39;;;;;;;37.28;11.75;;;;;;;;;;5053958;28;20122;-75
2022/03/15 13:10:09;;;;;;;20.80;9.60;;;;;;;;;;5061668;28;20147;-76
2022/03/15 13:12:36;;;;;;;18.90;8.82;;;;;;;;;;5064510;28;20131;-76
2022/03/15 13:15:04;;;;;;;22.77;8.82;;;;;;;;;;5068886;28;20052;-77
2022/03/15 13:17:32;;;;;;;27.52;10.45;;;;;;;;;;5070680;28;20497;-76
2022/03/15 13:20:00;;;;;;;23.00;9.90;;;;;;;;;;5069143;28;20098;-77
2022/03/15 13:22:29;;;;;;;26.45;10.05;;;;;;;;;;5070001;28;20064;-76
2022/03/15 13:25:01;;;;;;;23.65;10.63;;;;;;;;;;5068381;28;20088;-75
2022/03/15 13:27:38;;;;;;;22.48;10.15;;;;;;;;;;5061789;28;20053;-76
2022/03/15 13:30:10;;;;;;;22.83;10.18;;;;;;;;;;5058285;28;20821;-75
2022/03/15 13:32:38;;;;;;;27.65;10.52;;;;;;;;;;5061676;28;20049;-76
2022/03/15 13:35:05;;;;;;;22.73;8.98;;;;;;;;;;5067992;28;20130;-76
2022/03/15 13:37:34;;;;;;;42.80;9.90;;;;;;;;;;5067879;28;20116;-78
2022/03/15 13:40:05;;;;;;;24.63;9.18;;;;;;;;;;5070854;28;20438;-77
2022/03/15 13:42:33;;;;;;;25.05;8.93;;;;;;;;;;5070120;28;20053;-78
2022/03/15 13:45:00;;;;;;;25.42;10.15;;;;;;;;;;5070045;28;20135;-77
2022/03/15 13:47:27;;;;;;;22.52;9.50;;;;;;;;;;5067205;28;20048;-78
2022/03/15 13:49:58;;;;;;;25.10;9.98;;;;;;;;;;5070938;28;20036;-77
2022/03/15 13:52:25;;;;;;;25.75;9.63;;;;;;;;;;5069064;28;20374;-78
2022/03/15 13:55:02;;;;;;;25.65;10.18;;;;;;;;;;5070934;28;20059;-78
2022/03/15 13:57:31;;;;;;;23.70;9.05;;;;;;;;;;5071711;28;20097;-78
2022/03/15 14:00:12;;;;;;;21.90;8.63;;;;;;;;;;5061423;28;20064;-78
2022/03/15 14:02:41;;;;;;;21.20;8.13;;;;;;;;;;5061464;28;20115;-77
2022/03/15 14:05:14;;;;;;;23.20;8.68;;;;;;;;;;5059528;28;20041;-80
2022/03/15 14:07:42;;;;;;;21.90;7.28;;;;;;;;;;5074211;28;20099;-79
2022/03/15 14:10:12;;;;;;;27.48;8.45;;;;;;;;;;5074098;28;20080;-78
2022/03/15 14:12:42;;;;;;;30.25;7.35;;;;;;;;;;5071200;28;20052;-77
2022/03/15 14:15:13;;;;;;;26.08;7.38;;;;;;;;;;5067704;28;20057;-77
2022/03/15 14:17:44;;;;;;;21.17;7.63;;;;;;;;;;5069588;28;20049;-76
2022/03/15 14:20:13;;;;;;;19.23;8.70;;;;;;;;;;5062415;28;20209;-77
2022/03/15 14:22:46;;;;;;;21.88;7.90;;;;;;;;;;5066277;28;20118;-76
2022/03/15 14:25:20;;;;;;;18.20;8.15;;;;;;;;;;5065275;28;20083;-77
2022/03/15 14:27:48;;;;;;;25.63;8.10;;;;;;;;;;5068557;28;20102;-77
2022/03/15 14:30:18;;;;;;;21.92;7.72;;;;;;;;;;5062327;28;20082;-77
2022/03/15 14:32:52;;;;;;;27.33;8.13;;;;;;;;;;5069683;28;20135;-77